createdAt,value
2022-09-06T00:02:05.117Z,98966.88
2022-09-06T00:04:31.742Z,98958.03
2022-09-06T00:06:58.344Z,98962.41
2022-09-06T00:09:25.337Z,98969.38
2022-09-06T00:11:51.894Z,98967.53
2022-09-06T00:14:18.462Z,98964.25
2022-09-06T00:16:45.059Z,98961.00
2022-09-06T00:19:11.940Z,98963.66
2022-09-06T00:21:38.594Z,98954.22
2022-09-06T00:24:05.256Z,98948.41
2022-09-06T00:26:32.123Z,98959.63
2022-09-06T00:28:58.767Z,98954.50
2022-09-06T00:31:26.709Z,98960.63
2022-09-06T00:33:53.799Z,98967.81
2022-09-06T00:36:21.004Z,98962.59
2022-09-06T00:38:47.771Z,98960.34
2022-09-06T00:41:15.881Z,98966.44
2022-09-06T00:43:42.651Z,98965.66
2022-09-06T00:46:12.403Z,98968.19
2022-09-06T00:48:40.387Z,98974.59
2022-09-06T00:51:11.386Z,98964.19
2022-09-06T00:53:38.119Z,98967.13
2022-09-06T00:56:05.141Z,98973.88
2022-09-06T00:58:31.833Z,98972.31
2022-09-06T01:00:58.564Z,98965.63
2022-09-06T01:03:25.685Z,98962.31
2022-09-06T01:06:20.239Z,98960.00
2022-09-06T01:09:28.046Z,98965.94
2022-09-06T01:12:20.642Z,98961.41
2022-09-06T01:15:05.985Z,98965.06
2022-09-06T01:17:46.263Z,98970.28
2022-09-06T01:20:31.498Z,98963.38
2022-09-06T01:23:10.545Z,98968.66
2022-09-06T01:25:55.576Z,98969.63
2022-09-06T01:28:37.534Z,98963.88
2022-09-06T01:31:22.253Z,98957.66
2022-09-06T01:34:14.213Z,98957.69
2022-09-06T01:37:10.650Z,98963.81
2022-09-06T01:39:39.565Z,98956.28
2022-09-06T01:42:22.997Z,98950.47
2022-09-06T01:44:58.072Z,98952.22
2022-09-06T01:47:49.255Z,98957.44
2022-09-06T01:50:34.498Z,98953.91
2022-09-06T01:53:15.966Z,98947.03
2022-09-06T01:55:57.284Z,98945.44
2022-09-06T01:58:48.737Z,98945.53
2022-09-06T02:01:44.020Z,98946.25
2022-09-06T02:04:33.581Z,98947.09
2022-09-06T02:07:26.297Z,98944.63
2022-09-06T02:10:00.017Z,98945.78
2022-09-06T02:12:29.954Z,98947.41
2022-09-06T02:15:02.406Z,98957.84
2022-09-06T02:17:37.399Z,98962.16
2022-09-06T02:20:13.375Z,98959.75
2022-09-06T02:22:44.377Z,98961.09
2022-09-06T02:25:18.574Z,98957.72
2022-09-06T02:27:45.294Z,98955.16
2022-09-06T02:30:12.369Z,98945.72
2022-09-06T02:32:48.274Z,98945.75
2022-09-06T02:35:16.709Z,98945.97
2022-09-06T02:37:44.194Z,98944.28
2022-09-06T02:40:12.254Z,98939.75
2022-09-06T02:42:40.504Z,98947.66
2022-09-06T02:45:08.056Z,98939.69
2022-09-06T02:47:34.747Z,98941.50
2022-09-06T02:50:01.370Z,98941.50
2022-09-06T02:52:27.929Z,98949.22
2022-09-06T02:54:55.176Z,98941.66
2022-09-06T02:57:21.756Z,98939.84
2022-09-06T02:59:48.324Z,98949.38
2022-09-06T03:02:16.085Z,98941.81
2022-09-06T03:04:42.696Z,98956.69
2022-09-06T03:07:09.270Z,98944.78
2022-09-06T03:09:35.894Z,98937.09
2022-09-06T03:12:02.612Z,98937.97
2022-09-06T03:14:29.163Z,98930.31
2022-09-06T03:16:55.874Z,98930.25
2022-09-06T03:19:22.488Z,98928.69
2022-09-06T03:21:49.098Z,98927.06
2022-09-06T03:24:15.679Z,98938.28
2022-09-06T03:26:42.282Z,98933.00
2022-09-06T03:29:08.941Z,98938.34
2022-09-06T03:31:35.536Z,98920.97
2022-09-06T03:34:02.133Z,98915.94
2022-09-06T03:36:29.704Z,98920.31
2022-09-06T03:38:56.307Z,98914.94
2022-09-06T03:41:22.920Z,98909.72
2022-09-06T03:43:49.478Z,98913.13
2022-09-06T03:46:16.182Z,98904.56
2022-09-06T03:48:42.759Z,98907.16
2022-09-06T03:51:09.386Z,98905.75
2022-09-06T03:53:36.026Z,98911.53
2022-09-06T03:56:02.891Z,98909.81
2022-09-06T03:58:31.517Z,98912.25
2022-09-06T04:01:03.723Z,98916.63
2022-09-06T04:03:30.685Z,98912.34
2022-09-06T04:05:57.362Z,98910.13
2022-09-06T04:08:24.023Z,98908.63
2022-09-06T04:10:53.325Z,98908.72
2022-09-06T04:13:20.822Z,98904.50
2022-09-06T04:15:48.093Z,98902.94
2022-09-06T04:18:15.943Z,98900.44
2022-09-06T04:20:43.482Z,98907.09
2022-09-06T04:23:10.068Z,98917.22
2022-09-06T04:25:36.984Z,98922.41
2022-09-06T04:28:03.675Z,98927.38
2022-09-06T04:30:30.671Z,98923.25
2022-09-06T04:32:57.247Z,98925.81
2022-09-06T04:35:23.999Z,98932.88
2022-09-06T04:37:50.600Z,98931.88
2022-09-06T04:40:17.310Z,98935.25
2022-09-06T04:42:43.945Z,98929.00
2022-09-06T04:45:10.933Z,98923.75
2022-09-06T04:47:37.745Z,98928.25
2022-09-06T04:50:04.527Z,98936.56
2022-09-06T04:52:31.133Z,98935.00
2022-09-06T04:54:57.746Z,98928.78
2022-09-06T04:57:24.353Z,98927.66
2022-09-06T04:59:50.938Z,98916.25
2022-09-06T05:02:17.562Z,98927.44
2022-09-06T05:04:44.189Z,98933.09
2022-09-06T05:07:10.784Z,98921.69
2022-09-06T05:09:37.361Z,98925.16
2022-09-06T05:12:04.753Z,98925.91
2022-09-06T05:14:31.385Z,98923.59
2022-09-06T05:16:58.181Z,98922.50
2022-09-06T05:19:24.987Z,98927.72
2022-09-06T05:21:52.392Z,98925.66
2022-09-06T05:24:19.181Z,98920.16
2022-09-06T05:26:45.745Z,98912.91
2022-09-06T05:29:12.473Z,98911.44
2022-09-06T05:31:39.592Z,98914.72
2022-09-06T05:34:06.362Z,98915.41
2022-09-06T05:36:33.310Z,98899.53
2022-09-06T05:39:00.225Z,98911.06
2022-09-06T05:41:27.139Z,98908.41
2022-09-06T05:43:53.726Z,98911.25
2022-09-06T05:46:21.006Z,98915.75
2022-09-06T05:49:01.165Z,98912.84
2022-09-06T05:51:27.864Z,98914.06
2022-09-06T05:53:54.458Z,98923.16
2022-09-06T05:56:22.373Z,98921.25
2022-09-06T05:58:48.982Z,98918.31
2022-09-06T06:01:18.436Z,98920.47
2022-09-06T06:04:02.362Z,98937.66
2022-09-06T06:06:31.477Z,98942.34
2022-09-06T06:08:58.662Z,98935.03
2022-09-06T06:11:26.494Z,98943.69
2022-09-06T06:13:53.709Z,98935.69
2022-09-06T06:16:22.633Z,98935.13
2022-09-06T06:18:52.186Z,98938.22
2022-09-06T06:21:29.998Z,98943.91
2022-09-06T06:24:02.059Z,98942.22
2022-09-06T06:26:31.773Z,98945.41
2022-09-06T06:29:01.834Z,98943.66
2022-09-06T06:31:30.174Z,98940.13
2022-09-06T06:33:57.076Z,98937.97
2022-09-06T06:36:25.637Z,98934.63
2022-09-06T06:38:55.288Z,98929.97
2022-09-06T06:41:24.446Z,98937.19
2022-09-06T06:44:02.741Z,98940.63
2022-09-06T06:46:34.998Z,98941.50
2022-09-06T06:49:01.853Z,98936.28
2022-09-06T06:51:31.268Z,98934.38
2022-09-06T06:53:58.221Z,98931.03
2022-09-06T06:56:35.217Z,98934.19
2022-09-06T06:59:04.551Z,98941.41
2022-09-06T07:01:32.675Z,98945.31
2022-09-06T07:03:59.791Z,98945.16
2022-09-06T07:09:16.340Z,98939.38
2022-09-06T07:11:43.005Z,98930.25
2022-09-06T07:14:09.869Z,98931.91
2022-09-06T07:16:36.608Z,98928.25
2022-09-06T07:19:03.426Z,98931.66
2022-09-06T07:21:37.602Z,98934.31
2022-09-06T07:24:06.541Z,98939.72
2022-09-06T07:26:35.034Z,98934.19
2022-09-06T07:29:03.775Z,98936.63
2022-09-06T07:34:19.361Z,98940.88
2022-09-06T07:36:46.029Z,98941.47
2022-09-06T07:39:12.635Z,98937.97
2022-09-06T07:41:39.247Z,98940.47
2022-09-06T07:44:05.856Z,98934.09
2022-09-06T07:46:32.453Z,98935.81
2022-09-06T07:48:59.224Z,98944.56
2022-09-06T07:51:25.845Z,98947.28
2022-09-06T07:54:07.425Z,98943.59
2022-09-06T07:56:40.495Z,98942.47
2022-09-06T07:59:07.221Z,98943.16
2022-09-06T08:01:38.536Z,98951.94
2022-09-06T08:04:13.251Z,98954.03
2022-09-06T08:09:33.151Z,98953.03
2022-09-06T08:11:59.898Z,98940.84
2022-09-06T08:14:26.481Z,98942.75
2022-09-06T08:16:53.071Z,98941.50
2022-09-06T08:19:19.656Z,98945.72
2022-09-06T08:21:46.257Z,98939.63
2022-09-06T08:24:12.868Z,98940.88
2022-09-06T08:26:40.697Z,98942.94
2022-09-06T08:29:08.834Z,98946.72
2022-09-06T08:31:41.833Z,98943.16
2022-09-06T08:34:08.643Z,98934.53
2022-09-06T08:36:35.803Z,98933.41
2022-09-06T08:39:05.686Z,98926.47
2022-09-06T08:42:05.371Z,98930.25
2022-09-06T08:47:20.319Z,98929.28
2022-09-06T08:49:50.281Z,98918.00
2022-09-06T08:52:45.329Z,98915.63
2022-09-06T08:55:34.706Z,98917.00
2022-09-06T08:58:05.923Z,98909.56
2022-09-06T09:00:35.057Z,98904.22
2022-09-06T09:03:04.555Z,98900.41
2022-09-06T09:05:34.765Z,98904.91
2022-09-06T09:08:19.807Z,98912.81
2022-09-06T09:10:50.048Z,98911.94
2022-09-06T09:13:27.259Z,98912.56
2022-09-06T09:15:54.012Z,98917.38
2022-09-06T09:18:25.944Z,98915.06
2022-09-06T09:20:53.159Z,98905.28
2022-09-06T09:23:19.731Z,98900.06
2022-09-06T09:25:48.130Z,98895.66
2022-09-06T09:28:19.151Z,98882.72
2022-09-06T09:30:55.130Z,98878.28
2022-09-06T09:33:35.164Z,98887.53
2022-09-06T09:36:07.386Z,98878.34
2022-09-06T09:38:42.585Z,98870.84
2022-09-06T09:41:10.892Z,98879.56
2022-09-06T09:43:42.592Z,98869.97
2022-09-06T09:46:17.148Z,98871.34
2022-09-06T09:49:22.432Z,98858.91
2022-09-06T09:52:05.976Z,98861.16
2022-09-06T09:54:37.078Z,98859.75
2022-09-06T09:57:11.819Z,98857.13
2022-09-06T09:59:50.222Z,98855.31
2022-09-06T10:02:40.085Z,98854.25
2022-09-06T10:05:20.334Z,98851.50
2022-09-06T10:07:51.193Z,98851.94
2022-09-06T10:10:27.049Z,98860.22
2022-09-06T10:13:33.071Z,98857.38
2022-09-06T10:16:03.084Z,98855.34
2022-09-06T10:18:33.853Z,98853.28
2022-09-06T10:21:09.032Z,98856.16
2022-09-06T10:26:52.142Z,98845.78
2022-09-06T10:29:59.232Z,98851.38
2022-09-06T10:32:44.875Z,98848.44
2022-09-06T10:35:24.057Z,98854.91
2022-09-06T10:38:15.182Z,98850.47
2022-09-06T10:40:56.561Z,98835.41
2022-09-06T10:43:27.792Z,98837.84
2022-09-06T10:46:01.300Z,98836.78
2022-09-06T10:48:40.721Z,98839.19
2022-09-06T10:51:34.921Z,98836.22
2022-09-06T10:54:12.082Z,98838.34
2022-09-06T10:56:54.011Z,98834.91
2022-09-06T10:59:50.266Z,98832.34
2022-09-06T11:02:43.988Z,98829.81
2022-09-06T11:11:06.196Z,98817.00
2022-09-06T11:13:33.092Z,98815.06
2022-09-06T11:16:18.411Z,98818.69
2022-09-06T11:19:06.549Z,98811.59
2022-09-06T11:21:45.155Z,98814.34
2022-09-06T11:24:39.141Z,98809.47
2022-09-06T11:27:11.585Z,98808.13
2022-09-06T11:29:43.009Z,98812.69
2022-09-06T11:32:34.484Z,98808.72
2022-09-06T11:35:05.117Z,98810.50
2022-09-06T11:37:36.332Z,98821.31
2022-09-06T11:40:26.900Z,98816.66
2022-09-06T11:42:54.708Z,98807.97
2022-09-06T11:45:41.584Z,98808.00
2022-09-06T11:49:00.942Z,98808.97
2022-09-06T11:51:53.894Z,98804.22
2022-09-06T11:54:24.531Z,98810.03
2022-09-06T11:57:23.491Z,98819.94
2022-09-06T12:00:00.475Z,98803.69
2022-09-06T12:02:41.646Z,98812.19
2022-09-06T12:05:09.927Z,98820.47
2022-09-06T12:08:11.253Z,98810.75
2022-09-06T12:10:40.678Z,98812.19
2022-09-06T12:13:36.052Z,98809.81
2022-09-06T12:16:02.895Z,98810.63
2022-09-06T12:18:47.653Z,98806.34
2022-09-06T12:21:33.195Z,98803.91
2022-09-06T12:24:00.249Z,98804.00
2022-09-06T12:26:55.313Z,98793.53
2022-09-06T12:29:26.762Z,98791.13
2022-09-06T12:32:05.823Z,98791.88
2022-09-06T12:34:35.746Z,98796.94
2022-09-06T12:37:08.322Z,98799.44
2022-09-06T12:39:35.594Z,98794.16
2022-09-06T12:42:02.223Z,98803.66
2022-09-06T12:44:43.897Z,98805.47
2022-09-06T12:47:23.965Z,98813.75
2022-09-06T12:50:13.623Z,98805.50
2022-09-06T12:52:49.242Z,98806.81
2022-09-06T12:55:23.632Z,98802.47
2022-09-06T12:57:51.606Z,98806.19
2022-09-06T13:00:19.461Z,98805.47
2022-09-06T13:03:33.404Z,98805.47
2022-09-06T13:06:04.456Z,98810.00
2022-09-06T13:08:44.656Z,98812.13
2022-09-06T13:11:14.028Z,98810.78
2022-09-06T13:13:49.074Z,98811.25
2022-09-06T13:16:27.474Z,98799.38
2022-09-06T13:18:54.956Z,98802.59
2022-09-06T13:21:32.820Z,98806.03
2022-09-06T13:24:03.965Z,98801.34
2022-09-06T13:26:35.749Z,98798.72
2022-09-06T13:29:33.325Z,98801.09
2022-09-06T13:32:01.736Z,98801.53
2022-09-06T13:34:33.017Z,98800.97
2022-09-06T13:37:07.034Z,98795.47
2022-09-06T13:39:37.586Z,98791.66
2022-09-06T13:42:10.735Z,98792.59
2022-09-06T13:44:39.375Z,98773.34
2022-09-06T13:47:06.516Z,98772.63
2022-09-06T13:49:34.008Z,98768.91
2022-09-06T13:52:03.090Z,98772.16
2022-09-06T13:54:31.225Z,98766.66
2022-09-06T13:56:57.958Z,98767.34
2022-09-06T13:59:25.369Z,98769.88
2022-09-06T14:02:07.700Z,98773.84
2022-09-06T14:04:35.796Z,98772.53
2022-09-06T14:07:02.955Z,98767.13
2022-09-06T14:09:30.430Z,98771.22
2022-09-06T14:12:31.290Z,98770.00
2022-09-06T14:14:57.940Z,98764.50
2022-09-06T14:17:24.583Z,98759.34
2022-09-06T14:19:51.196Z,98751.31
2022-09-06T14:22:17.856Z,98751.91
2022-09-06T14:24:44.514Z,98750.41
2022-09-06T14:27:11.111Z,98752.69
2022-09-06T14:29:37.816Z,98749.69
2022-09-06T14:32:04.456Z,98742.69
2022-09-06T14:34:31.165Z,98741.75
2022-09-06T14:37:04.519Z,98734.34
2022-09-06T14:39:31.106Z,98734.56
2022-09-06T14:41:57.779Z,98737.09
2022-09-06T14:44:24.536Z,98732.84
2022-09-06T14:46:53.500Z,98733.66
2022-09-06T14:49:20.866Z,98728.72
2022-09-06T14:51:47.628Z,98736.13
2022-09-06T14:54:15.969Z,98730.72
2022-09-06T14:56:44.201Z,98724.50
2022-09-06T14:59:11.734Z,98724.66
2022-09-06T15:01:39.267Z,98724.66
2022-09-06T15:04:08.506Z,98724.72
2022-09-06T15:06:37.106Z,98722.59
2022-09-06T15:09:05.850Z,98725.44
2022-09-06T15:11:34.662Z,98726.72
2022-09-06T15:14:06.318Z,98722.53
2022-09-06T15:16:33.293Z,98717.56
2022-09-06T15:19:00.403Z,98718.03
2022-09-06T15:21:27.106Z,98700.25
2022-09-06T15:23:53.754Z,98696.66
2022-09-06T15:26:21.408Z,98696.31
2022-09-06T15:28:48.213Z,98698.88
2022-09-06T15:31:15.375Z,98699.28
2022-09-06T15:33:42.187Z,98699.06
2022-09-06T15:36:10.536Z,98701.97
2022-09-06T15:38:41.127Z,98696.38
2022-09-06T15:41:10.810Z,98696.38
2022-09-06T15:43:44.190Z,98699.84
2022-09-06T15:46:10.895Z,98701.53
2022-09-06T15:48:55.407Z,98703.19
2022-09-06T15:51:22.374Z,98694.72
2022-09-06T15:53:49.031Z,98693.28
2022-09-06T15:56:17.474Z,98691.22
2022-09-06T15:58:47.992Z,98695.25
2022-09-06T16:01:17.410Z,98691.47
2022-09-06T16:03:46.934Z,98690.22
2022-09-06T16:06:28.407Z,98690.09
2022-09-06T16:09:05.534Z,98692.81
2022-09-06T16:11:33.541Z,98686.72
2022-09-06T16:14:00.236Z,98682.31
2022-09-06T16:16:27.011Z,98678.94
2022-09-06T16:18:53.656Z,98675.41
2022-09-06T16:21:26.237Z,98676.59
2022-09-06T16:23:55.617Z,98665.78
2022-09-06T16:26:23.844Z,98669.34
2022-09-06T16:28:52.274Z,98675.22
2022-09-06T16:31:20.654Z,98674.16
2022-09-06T16:33:48.997Z,98668.28
2022-09-06T16:36:16.213Z,98671.56
2022-09-06T16:38:43.718Z,98665.81
2022-09-06T16:41:21.738Z,98680.31
2022-09-06T16:43:52.661Z,98671.06
2022-09-06T16:46:24.146Z,98669.81
2022-09-06T16:48:52.748Z,98669.06
2022-09-06T16:51:21.979Z,98665.94
2022-09-06T16:53:49.443Z,98662.66
2022-09-06T16:56:19.433Z,98658.25
2022-09-06T16:59:00.319Z,98653.00
2022-09-06T17:01:29.824Z,98662.97
2022-09-06T17:03:57.499Z,98666.44
2022-09-06T17:06:25.399Z,98667.03
2022-09-06T17:08:52.190Z,98662.59
2022-09-06T17:11:21.155Z,98658.81
2022-09-06T17:13:50.906Z,98655.00
2022-09-06T17:16:38.049Z,98654.38
2022-09-06T17:19:07.036Z,98661.91
2022-09-06T17:21:34.246Z,98664.28
2022-09-06T17:24:04.614Z,98665.63
2022-09-06T17:26:33.163Z,98658.44
2022-09-06T17:28:59.915Z,98667.34
2022-09-06T17:31:28.272Z,98665.09
2022-09-06T17:33:54.986Z,98669.13
2022-09-06T17:36:24.075Z,98672.53
2022-09-06T17:38:53.539Z,98672.53
2022-09-06T17:41:27.476Z,98677.50
2022-09-06T17:43:55.285Z,98676.94
2022-09-06T17:46:28.518Z,98677.13
2022-09-06T17:48:56.274Z,98689.47
2022-09-06T17:51:23.495Z,98692.28
2022-09-06T17:53:50.366Z,98696.75
2022-09-06T17:56:18.197Z,98690.47
2022-09-06T17:58:55.259Z,98689.63
2022-09-06T18:01:23.741Z,98688.06
2022-09-06T18:03:50.539Z,98684.69
2022-09-06T18:06:20.503Z,98683.06
2022-09-06T18:08:48.027Z,98683.44
2022-09-06T18:11:24.580Z,98683.84
2022-09-06T18:13:56.918Z,98679.06
2022-09-06T18:16:23.624Z,98677.94
2022-09-06T18:18:52.521Z,98688.94
2022-09-06T18:21:19.255Z,98687.31
2022-09-06T18:23:45.853Z,98680.16
2022-09-06T18:26:12.777Z,98682.06
2022-09-06T18:28:40.439Z,98681.28
2022-09-06T18:31:12.774Z,98689.97
2022-09-06T18:33:40.780Z,98689.81
2022-09-06T18:36:09.311Z,98684.50
2022-09-06T18:38:37.484Z,98689.25
2022-09-06T18:41:06.629Z,98680.00
2022-09-06T18:43:38.605Z,98683.72
2022-09-06T18:46:10.323Z,98680.03
2022-09-06T18:48:37.618Z,98684.09
2022-09-06T18:51:05.370Z,98693.03
2022-09-06T18:53:31.988Z,98690.31
2022-09-06T18:55:59.053Z,98690.59
2022-09-06T18:58:26.229Z,98691.69
2022-09-06T19:00:53.812Z,98685.63
2022-09-06T19:03:20.564Z,98683.25
2022-09-06T19:05:47.198Z,98682.25
2022-09-06T19:08:13.793Z,98682.91
2022-09-06T19:10:40.364Z,98688.31
2022-09-06T19:13:07.504Z,98690.16
2022-09-06T19:15:34.119Z,98691.84
2022-09-06T19:18:00.703Z,98688.09
2022-09-06T19:20:27.434Z,98684.06
2022-09-06T19:22:54.054Z,98683.44
2022-09-06T19:25:20.952Z,98687.56
2022-09-06T19:27:48.944Z,98676.28
2022-09-06T19:30:15.685Z,98675.75
2022-09-06T19:32:42.275Z,98673.22
2022-09-06T19:35:09.306Z,98677.53
2022-09-06T19:37:35.962Z,98667.00
2022-09-06T19:40:02.919Z,98672.66
2022-09-06T19:42:29.571Z,98674.94
2022-09-06T19:44:56.216Z,98675.78
2022-09-06T19:47:22.823Z,98673.84
2022-09-06T19:49:49.446Z,98687.16
2022-09-06T19:52:16.073Z,98680.66
2022-09-06T19:54:43.328Z,98679.13
2022-09-06T19:57:10.614Z,98676.50
2022-09-06T19:59:37.275Z,98685.75
2022-09-06T20:02:04.926Z,98685.63
2022-09-06T20:04:32.546Z,98685.38
2022-09-06T20:06:59.211Z,98689.91
2022-09-06T20:09:25.802Z,98682.00
2022-09-06T20:11:52.572Z,98682.25
2022-09-06T20:14:19.249Z,98674.31
2022-09-06T20:16:46.097Z,98669.25
2022-09-06T20:19:14.616Z,98680.28
2022-09-06T20:21:41.417Z,98677.53
2022-09-06T20:24:08.525Z,98681.81
2022-09-06T20:26:35.506Z,98682.06
2022-09-06T20:29:04.656Z,98692.09
2022-09-06T20:31:32.527Z,98684.59
2022-09-06T20:34:01.104Z,98687.38
2022-09-06T20:36:28.502Z,98690.06
2022-09-06T20:38:55.321Z,98681.63
2022-09-06T20:41:24.194Z,98675.22
2022-09-06T20:43:59.081Z,98668.38
2022-09-06T20:46:28.820Z,98667.56
2022-09-06T20:48:57.911Z,98668.47
2022-09-06T20:51:25.256Z,98665.06
2022-09-06T20:53:54.630Z,98670.38
2022-09-06T20:56:23.984Z,98666.47
2022-09-06T20:58:54.582Z,98670.16
2022-09-06T21:01:25.278Z,98661.53
2022-09-06T21:03:54.477Z,98667.31
2022-09-06T21:06:22.421Z,98657.06
2022-09-06T21:08:50.592Z,98653.72
2022-09-06T21:11:18.192Z,98661.81
2022-09-06T21:13:49.438Z,98663.03
2022-09-06T21:16:18.411Z,98664.03
2022-09-06T21:18:52.878Z,98665.84
2022-09-06T21:21:19.895Z,98664.34
2022-09-06T21:23:46.473Z,98662.06
2022-09-06T21:26:15.774Z,98667.28
2022-09-06T21:28:42.441Z,98670.50
2022-09-06T21:31:15.038Z,98670.81
2022-09-06T21:33:44.256Z,98670.97
2022-09-06T21:36:13.723Z,98667.84
2022-09-06T21:38:43.780Z,98668.69
2022-09-06T21:41:11.435Z,98669.81
2022-09-06T21:43:38.481Z,98673.97
2022-09-06T21:46:12.802Z,98663.50
2022-09-06T21:48:41.224Z,98659.28
2022-09-06T21:51:09.521Z,98652.28
2022-09-06T21:53:37.146Z,98655.34
2022-09-06T21:56:05.172Z,98652.25
2022-09-06T21:58:34.696Z,98647.22
2022-09-06T22:01:02.289Z,98647.13
2022-09-06T22:03:31.945Z,98643.09
2022-09-06T22:05:58.705Z,98641.56
2022-09-06T22:08:25.848Z,98640.22
2022-09-06T22:10:52.608Z,98640.22
2022-09-06T22:13:20.448Z,98641.78
2022-09-06T22:15:47.305Z,98630.75
2022-09-06T22:18:13.985Z,98634.13
2022-09-06T22:20:40.591Z,98633.50
2022-09-06T22:23:08.419Z,98638.13
2022-09-06T22:25:35.186Z,98634.31
2022-09-06T22:28:02.067Z,98637.81
2022-09-06T22:30:28.668Z,98636.19
2022-09-06T22:32:55.342Z,98636.91
2022-09-06T22:35:22.211Z,98635.91
2022-09-06T22:37:48.855Z,98642.69
2022-09-06T22:40:15.448Z,98637.56
2022-09-06T22:42:42.013Z,98642.13
2022-09-06T22:45:09.027Z,98637.81
2022-09-06T22:47:35.619Z,98638.53
2022-09-06T22:50:02.230Z,98642.88
2022-09-06T22:52:28.815Z,98639.44
2022-09-06T22:54:55.897Z,98641.19
2022-09-06T22:57:22.466Z,98643.16
2022-09-06T22:59:49.044Z,98646.75
2022-09-06T23:02:15.647Z,98644.84
2022-09-06T23:04:42.312Z,98645.97
2022-09-06T23:07:09.019Z,98650.44
2022-09-06T23:09:35.608Z,98648.88
2022-09-06T23:12:02.459Z,98640.44
2022-09-06T23:14:29.161Z,98645.53
2022-09-06T23:16:56.316Z,98641.03
2022-09-06T23:19:22.890Z,98645.53
2022-09-06T23:21:49.564Z,98651.44
2022-09-06T23:24:16.183Z,98652.69
2022-09-06T23:26:42.779Z,98660.06
2022-09-06T23:29:09.421Z,98657.38
2022-09-06T23:31:36.171Z,98647.84
2022-09-06T23:34:03.453Z,98640.13
2022-09-06T23:36:30.737Z,98641.81
2022-09-06T23:38:57.642Z,98640.06
2022-09-06T23:41:24.882Z,98638.31
2022-09-06T23:43:51.824Z,98640.19
2022-09-06T23:46:19.369Z,98639.81
2022-09-06T23:48:46.269Z,98639.03
2022-09-06T23:51:13.104Z,98629.66
2022-09-06T23:53:40.366Z,98632.59
2022-09-06T23:56:08.206Z,98623.34
2022-09-06T23:58:35.845Z,98622.97
